^^
Saratoga-Weather Station Historical Data
Daily Summary for May 7, 2020 Units:  English    Metric   Both
Daily Weekly Monthly Yearly Custom
  High: Low: Average:
Temperature: 39.9 °F 32.4 °F 37.9 °F
Dew Point: 37.8 °F 31.1 °F 35.4 °F
Humidity: 95% 88% 91%
Wind Speed: 6mph 0mph 0.7mph
Wind Gust: 7mph - -
Wind- - East
Pressure: 29.5 in 29.5 in -
Precipitation: 0 in    
Historical Graphs
 
 
Tabular Data for May 7, 2020
Time Temperature Dew Point Pressure Wind Wind Speed Wind Gust Humidity Rainfall Rate (Hourly) solar
09:04 35.6 °F 34 °F 29.5 in Calm   1 mph 94% 0 in 26 W/m2
09:09 35.8 °F 34.2 °F 29.5 in Calm   1 mph 94% 0 in 30 W/m2
09:14 35.8 °F 34.2 °F 29.5 in Calm   1 mph 94% 0 in 35 W/m2
09:19 36 °F 34.3 °F 29.5 in Calm     94% 0 in 42 W/m2
09:24 36 °F 34.3 °F 29.5 in Calm     94% 0 in 47 W/m2
09:29 36.1 °F 34.5 °F 29.5 in Calm   1 mph 94% 0 in 53 W/m2
09:34 36.1 °F 34.5 °F 29.5 in SE 0.9 mph 2 mph 94% 0 in 53 W/m2
09:39 36.3 °F 34.7 °F 29.5 in ENE 2 mph 2 mph 94% 0 in 58 W/m2
09:44 36.3 °F 34.7 °F 29.5 in ENE 2 mph 2 mph 94% 0 in 65 W/m2
09:49 36.5 °F 34.9 °F 29.5 in NE 2 mph 2 mph 94% 0 in 63 W/m2
09:54 36.7 °F 35.1 °F 29.5 in Calm   3 mph 94% 0 in 58 W/m2
09:59 36.7 °F 35.1 °F 29.5 in ENE 0.9 mph 1 mph 94% 0 in 58 W/m2
10:04 36.9 °F 35.1 °F 29.5 in Calm   3 mph 93% 0 in 67 W/m2
10:09 37 °F 35.2 °F 29.5 in Calm   3 mph 93% 0 in 67 W/m2
10:14 37 °F 35.2 °F 29.5 in East 2 mph 3 mph 93% 0 in 65 W/m2
10:19 37 °F 35.2 °F 29.5 in Calm   4 mph 93% 0 in 60 W/m2
10:24 37 °F 35.2 °F 29.5 in East 2 mph 2 mph 93% 0 in 60 W/m2
10:29 37.2 °F 35.4 °F 29.5 in Calm   4 mph 93% 0 in 65 W/m2
10:35 37.2 °F 35.4 °F 29.5 in East 2 mph 2 mph 93% 0 in 69 W/m2
10:40 37.4 °F 35.6 °F 29.5 in ENE 0.9 mph 2 mph 93% 0 in 91 W/m2
10:45 37.4 °F 35.6 °F 29.5 in ENE 2 mph 3 mph 93% 0 in 95 W/m2
10:50 37.6 °F 35.8 °F 29.5 in ENE 2 mph 3 mph 93% 0 in 102 W/m2
10:55 37.6 °F 35.8 °F 29.5 in ESE 2 mph 2 mph 93% 0 in 109 W/m2
11:00 37.8 °F 35.6 °F 29.5 in Calm   2 mph 92% 0 in 100 W/m2
11:05 37.8 °F 35.6 °F 29.5 in East 0.9 mph 2 mph 92% 0 in 97 W/m2
11:10 37.8 °F 35.6 °F 29.5 in ENE 0.9 mph 1 mph 92% 0 in 98 W/m2
11:15 37.9 °F 35.8 °F 29.5 in East 0.9 mph 3 mph 92% 0 in 102 W/m2
11:20 37.9 °F 35.8 °F 29.5 in ENE 2 mph 2 mph 92% 0 in 109 W/m2
11:25 37.9 °F 35.8 °F 29.5 in Calm   1 mph 92% 0 in 132 W/m2
11:30 38.1 °F 36 °F 29.5 in Calm   2 mph 92% 0 in 160 W/m2
11:35 38.5 °F 36.3 °F 29.5 in East 0.9 mph 2 mph 92% 0 in 128 W/m2
11:40 38.8 °F 36.7 °F 29.5 in East 0.9 mph 1 mph 92% 0 in 111 W/m2
11:45 39 °F 36.7 °F 29.5 in NW 2 mph 4 mph 91% 0 in 114 W/m2
11:50 39 °F 36.3 °F 29.5 in SE 0.9 mph 3 mph 90% 0 in 116 W/m2
11:55 39.4 °F 36.7 °F 29.5 in Calm   4 mph 90% 0 in 139 W/m2
12:00 39.4 °F 36.5 °F 29.5 in SW 4 mph 5 mph 89% 0 in 98 W/m2
12:05 39.6 °F 36.5 °F 29.5 in Calm   2 mph 89% 0 in 109 W/m2
12:10 39.6 °F 36.5 °F 29.5 in NE 4 mph 4 mph 89% 0 in 104 W/m2
12:15 39.6 °F 36.3 °F 29.5 in NE 0.9 mph 3 mph 88% 0 in 84 W/m2
12:20 39.7 °F 36.7 °F 29.5 in East 0.9 mph 2 mph 89% 0 in 97 W/m2
12:25 39.7 °F 36.5 °F 29.5 in Calm   3 mph 88% 0 in 67 W/m2
12:30 39.9 °F 36.7 °F 29.5 in Calm   1 mph 88% 0 in 60 W/m2
12:35 39.9 °F 36.7 °F 29.5 in ESE 2 mph 4 mph 88% 0 in 51 W/m2
12:40 39.9 °F 36.9 °F 29.5 in ESE 2 mph 4 mph 89% 0 in 58 W/m2
12:45 39.9 °F 36.9 °F 29.5 in ESE 0.9 mph 2 mph 89% 0 in 63 W/m2
12:50 39.9 °F 36.9 °F 29.5 in ESE 0.9 mph 2 mph 89% 0 in 49 W/m2
12:55 39.7 °F 36.7 °F 29.5 in East 2 mph 3 mph 89% 0 in 81 W/m2
13:00 39.7 °F 36.7 °F 29.5 in Calm   3 mph 89% 0 in 60 W/m2
13:05 39.7 °F 36.7 °F 29.5 in Calm   4 mph 89% 0 in 54 W/m2
13:10 39.7 °F 37 °F 29.5 in East 2 mph 3 mph 90% 0 in 77 W/m2
13:15 39.7 °F 37 °F 29.5 in East 0.9 mph 4 mph 90% 0 in 86 W/m2
13:20 39.9 °F 36.9 °F 29.5 in ENE 0.9 mph 4 mph 89% 0 in 111 W/m2
13:25 39.9 °F 36.9 °F 29.5 in East 2 mph 3 mph 89% 0 in 88 W/m2
13:30 39.9 °F 36.9 °F 29.5 in WNW 2 mph 2 mph 89% 0 in 58 W/m2
13:35 39.9 °F 36.9 °F 29.5 in Calm   3 mph 89% 0 in 47 W/m2
13:40 39.9 °F 36.9 °F 29.5 in East 2 mph 2 mph 89% 0 in 40 W/m2
13:45 39.9 °F 36.9 °F 29.5 in East 0.9 mph 3 mph 89% 0 in 44 W/m2
13:50 39.9 °F 36.9 °F 29.5 in Calm   4 mph 89% 0 in 44 W/m2
13:55 39.9 °F 36.9 °F 29.5 in ESE 0.9 mph 3 mph 89% 0 in 35 W/m2
14:01 39.9 °F 37.2 °F 29.5 in ESE 0.9 mph 4 mph 90% 0 in 32 W/m2
14:06 39.9 °F 37.2 °F 29.5 in ESE 0.9 mph 2 mph 90% 0 in 35 W/m2
14:11 39.9 °F 37.2 °F 29.5 in SE 2 mph 3 mph 90% 0 in 46 W/m2
14:16 39.9 °F 37.2 °F 29.5 in ESE 2 mph 3 mph 90% 0 in 26 W/m2
14:21 39.9 °F 37.2 °F 29.5 in SE 2 mph 4 mph 90% 0 in 25 W/m2
14:26 39.9 °F 37.2 °F 29.5 in ESE 2 mph 4 mph 90% 0 in 21 W/m2
14:31 39.7 °F 37 °F 29.5 in East 0.9 mph 3 mph 90% 0 in 37 W/m2
14:36 39.9 °F 37.2 °F 29.5 in East 4 mph 6 mph 90% 0 in 30 W/m2
14:41 39.7 °F 37 °F 29.5 in East 2 mph 4 mph 90% 0 in 19 W/m2
14:46 39.7 °F 37 °F 29.5 in East 2.9 mph 6 mph 90% 0 in 18 W/m2
14:51 39.7 °F 37 °F 29.5 in NE 4 mph 6 mph 90% 0 in 11 W/m2
14:56 39.7 °F 37 °F 29.5 in ENE 2.9 mph 7 mph 90% 0 in 16 W/m2
15:01 39.7 °F 37 °F 29.5 in ESE 0.9 mph 7 mph 90% 0 in 21 W/m2
15:06 39.7 °F 37 °F 29.5 in ESE 6 mph 6 mph 90% 0 in 18 W/m2
15:11 39.7 °F 37 °F 29.5 in East 2 mph 4 mph 90% 0 in 12 W/m2
15:16 39.7 °F 37 °F 29.5 in East 2.9 mph 6 mph 90% 0 in 11 W/m2
15:21 39.7 °F 37 °F 29.5 in Calm   3 mph 90% 0 in 11 W/m2
15:26 39.7 °F 37 °F 29.5 in ESE 0.9 mph 6 mph 90% 0 in 14 W/m2
15:31 39.7 °F 37.4 °F 29.5 in ESE 0.9 mph 2 mph 91% 0 in 12 W/m2
15:36 39.7 °F 37.4 °F 29.5 in East 0.9 mph 2 mph 91% 0 in 12 W/m2
15:41 39.7 °F 37.4 °F 29.5 in East 0.9 mph 2 mph 91% 0 in 16 W/m2
15:46 39.7 °F 37.4 °F 29.5 in ENE 2 mph 3 mph 91% 0 in 25 W/m2
15:51 39.9 °F 37.6 °F 29.5 in East 0.9 mph 2 mph 91% 0 in 32 W/m2
15:56 39.9 °F 37.6 °F 29.5 in East 0.9 mph 3 mph 91% 0 in 25 W/m2
16:01 39.9 °F 37.6 °F 29.5 in ENE 0.9 mph 3 mph 91% 0 in 19 W/m2
16:06 39.9 °F 37.8 °F 29.5 in East 0.9 mph 3 mph 92% 0 in 11 W/m2
16:11 39.9 °F 37.8 °F 29.5 in East 0.9 mph 2 mph 92% 0 in 0 W/m2
16:16 39.9 °F 37.8 °F 29.5 in Calm   3 mph 92% 0 in 0 W/m2
16:21 39.9 °F 37.8 °F 29.5 in East 2 mph 4 mph 92% 0 in 5 W/m2
16:26 39.9 °F 37.6 °F 29.5 in SE 2 mph 4 mph 91% 0 in 0 W/m2
16:31 39.7 °F 37.4 °F 29.5 in ENE 2.9 mph 5 mph 91% 0 in 0 W/m2
16:36 39.7 °F 37 °F 29.5 in East 2 mph 4 mph 90% 0 in 0 W/m2
16:41 39.7 °F 37 °F 29.5 in East 0.9 mph 4 mph 90% 0 in 0 W/m2
16:46 39.7 °F 37 °F 29.5 in East 2 mph 3 mph 90% 0 in 0 W/m2
16:51 39.7 °F 37 °F 29.5 in East 0.9 mph 2 mph 90% 0 in 0 W/m2
16:56 39.7 °F 36.7 °F 29.5 in East 2 mph 3 mph 89% 0 in 0 W/m2
17:01 39.7 °F 36.7 °F 29.5 in ESE 0.9 mph 3 mph 89% 0 in 0 W/m2
17:06 39.7 °F 36.7 °F 29.5 in ENE 2 mph 4 mph 89% 0 in 0 W/m2
17:11 39.7 °F 36.7 °F 29.5 in Calm   7 mph 89% 0 in 0 W/m2
17:16 39.7 °F 36.7 °F 29.5 in ENE 2 mph 4 mph 89% 0 in 0 W/m2
17:21 39.6 °F 36.3 °F 29.5 in East 0.9 mph 6 mph 88% 0 in 0 W/m2
17:26 39.7 °F 36.7 °F 29.5 in Calm   1 mph 89% 0 in 0 W/m2
17:31 39.6 °F 36.5 °F 29.5 in East 2 mph 4 mph 89% 0 in 0 W/m2
17:36 39.6 °F 36.3 °F 29.5 in East 0.9 mph 2 mph 88% 0 in 0 W/m2
17:41 39.6 °F 36.3 °F 29.5 in ESE 0.9 mph 2 mph 88% 0 in 0 W/m2
17:46 39.6 °F 36.3 °F 29.5 in ESE 0.9 mph 3 mph 88% 0 in 0 W/m2
17:51 39.4 °F 36.1 °F 29.5 in East 2 mph 2 mph 88% 0 in 0 W/m2
17:56 39.4 °F 36.1 °F 29.5 in Calm   4 mph 88% 0 in 0 W/m2
18:01 39.2 °F 36 °F 29.5 in Calm   3 mph 88% 0 in 0 W/m2
18:06 39.2 °F 36 °F 29.5 in ENE 2 mph 3 mph 88% 0 in 0 W/m2
18:11 39.2 °F 36 °F 29.5 in ENE 0.9 mph 2 mph 88% 0 in 0 W/m2
18:16 39.2 °F 36 °F 29.5 in ENE 0.9 mph 1 mph 88% 0 in 0 W/m2
18:21 39 °F 35.8 °F 29.5 in ENE 0.9 mph 1 mph 88% 0 in 0 W/m2
18:26 39 °F 35.8 °F 29.5 in Calm     88% 0 in 0 W/m2
18:31 38.8 °F 35.6 °F 29.5 in Calm   1 mph 88% 0 in 0 W/m2
18:36 38.8 °F 35.6 °F 29.5 in Calm     88% 0 in 0 W/m2
18:41 38.8 °F 35.6 °F 29.5 in Calm     88% 0 in 0 W/m2
18:46 38.7 °F 35.8 °F 29.5 in Calm     89% 0 in 0 W/m2
18:51 38.7 °F 35.8 °F 29.5 in Calm   1 mph 89% 0 in 0 W/m2
18:56 38.5 °F 35.6 °F 29.5 in Calm     89% 0 in 0 W/m2
19:01 38.5 °F 35.6 °F 29.5 in Calm     89% 0 in 0 W/m2
19:06 38.3 °F 35.4 °F 29.5 in Calm     89% 0 in 0 W/m2
19:11 38.1 °F 35.4 °F 29.5 in Calm     90% 0 in 0 W/m2
19:16 37.9 °F 35.2 °F 29.5 in Calm     90% 0 in 0 W/m2
19:21 37.9 °F 35.2 °F 29.5 in Calm     90% 0 in 0 W/m2
19:26 37.9 °F 35.2 °F 29.5 in Calm     90% 0 in 0 W/m2
19:31 37.8 °F 35.1 °F 29.5 in Calm   1 mph 90% 0 in 0 W/m2
19:36 37.8 °F 35.1 °F 29.5 in Calm     90% 0 in 0 W/m2
19:41 37.8 °F 35.4 °F 29.5 in Calm   1 mph 91% 0 in 0 W/m2
19:46 37.8 °F 35.4 °F 29.5 in Calm     91% 0 in 0 W/m2
19:51 37.8 °F 35.4 °F 29.5 in Calm   1 mph 91% 0 in 0 W/m2
19:56 37.6 °F 35.2 °F 29.5 in Calm     91% 0 in 0 W/m2
20:01 37.6 °F 35.2 °F 29.5 in Calm   1 mph 91% 0 in 0 W/m2
20:06 37.6 °F 35.2 °F 29.5 in Calm     91% 0 in 0 W/m2
20:11 37.6 °F 35.2 °F 29.5 in Calm     91% 0 in 0 W/m2
20:16 37.4 °F 35.1 °F 29.5 in Calm     91% 0 in 0 W/m2
20:21 37.4 °F 35.1 °F 29.5 in Calm     91% 0 in 0 W/m2
20:26 37.4 °F 35.2 °F 29.5 in Calm     92% 0 in 0 W/m2
20:31 37.2 °F 35.1 °F 29.5 in Calm     92% 0 in 0 W/m2
20:36 37.2 °F 35.1 °F 29.5 in Calm     92% 0 in 0 W/m2
20:41 37.2 °F 35.1 °F 29.5 in Calm     92% 0 in 0 W/m2
20:46 37.2 °F 35.1 °F 29.5 in Calm     92% 0 in 0 W/m2
20:51 37 °F 34.9 °F 29.5 in Calm   1 mph 92% 0 in 0 W/m2
20:56 37 °F 34.9 °F 29.5 in Calm     92% 0 in 0 W/m2
21:01 37 °F 34.9 °F 29.5 in Calm   1 mph 92% 0 in 0 W/m2
21:06 36.9 °F 34.7 °F 29.5 in Calm     92% 0 in 0 W/m2
21:11 36.9 °F 34.7 °F 29.5 in Calm     92% 0 in 0 W/m2
21:16 36.9 °F 34.7 °F 29.5 in Calm     92% 0 in 0 W/m2
21:21 36.7 °F 34.5 °F 29.5 in Calm     92% 0 in 0 W/m2
21:26 36.5 °F 34.3 °F 29.5 in Calm   1 mph 92% 0 in 0 W/m2
21:31 36.3 °F 34.2 °F 29.5 in Calm     92% 0 in 0 W/m2
21:36 36.3 °F 34.2 °F 29.5 in Calm     92% 0 in 0 W/m2
21:42 36.1 °F 34 °F 29.5 in Calm     92% 0 in 0 W/m2
21:47 36 °F 33.6 °F 29.5 in Calm     91% 0 in 0 W/m2
21:52 35.8 °F 33.6 °F 29.5 in Calm     92% 0 in 0 W/m2
21:57 35.4 °F 33.3 °F 29.5 in Calm     92% 0 in 0 W/m2
22:02 35.2 °F 32.9 °F 29.5 in Calm     91% 0 in 0 W/m2
22:07 35.1 °F 32.9 °F 29.5 in Calm     92% 0 in 0 W/m2
22:12 34.9 °F 32.7 °F 29.5 in Calm     92% 0 in 0 W/m2
22:17 34.7 °F 32.5 °F 29.5 in Calm     92% 0 in 0 W/m2
22:22 34.5 °F 32.7 °F 29.5 in Calm     93% 0 in 0 W/m2
22:27 34.5 °F 32.7 °F 29.5 in Calm     93% 0 in 0 W/m2
22:32 34.3 °F 32.5 °F 29.5 in Calm     93% 0 in 0 W/m2
22:37 34.2 °F 32.4 °F 29.5 in Calm     93% 0 in 0 W/m2
22:42 33.8 °F 32 °F 29.5 in Calm     93% 0 in 0 W/m2
22:47 33.6 °F 31.8 °F 29.5 in Calm     93% 0 in 0 W/m2
22:52 33.6 °F 32 °F 29.5 in Calm     94% 0 in 0 W/m2
22:57 33.4 °F 31.8 °F 29.5 in Calm     94% 0 in 0 W/m2
23:02 33.4 °F 31.8 °F 29.5 in Calm     94% 0 in 0 W/m2
23:07 33.3 °F 31.6 °F 29.5 in Calm     94% 0 in 0 W/m2
23:12 33.3 °F 31.6 °F 29.5 in Calm     94% 0 in 0 W/m2
23:17 33.1 °F 31.5 °F 29.5 in Calm     94% 0 in 0 W/m2
23:22 33.1 °F 31.5 °F 29.5 in Calm     94% 0 in 0 W/m2
23:27 33.1 °F 31.5 °F 29.5 in Calm     94% 0 in 0 W/m2
23:32 32.9 °F 31.6 °F 29.5 in Calm     95% 0 in 0 W/m2
23:37 32.7 °F 31.1 °F 29.5 in Calm     94% 0 in 0 W/m2
23:42 32.7 °F 31.1 °F 29.5 in Calm     94% 0 in 0 W/m2
23:47 32.5 °F 31.3 °F 29.5 in Calm     95% 0 in 0 W/m2
23:52 32.5 °F 31.3 °F 29.5 in Calm     95% 0 in 0 W/m2
23:57 32.4 °F 31.1 °F 29.5 in Calm     95% 0 in 0 W/m2
Juneau County Weather
Compliments of Weather Underground - 2 mb